sensor_id;sensor_type;location;lat;lon;timestamp;temperature;humidity
21648;DHT22;10985;54.182;7.890;2022-10-22T10:15:26;15.60;99.90
21648;DHT22;10985;54.182;7.890;2022-10-22T10:21:17;15.60;99.90
21648;DHT22;10985;54.182;7.890;2022-10-22T10:29:56;15.80;99.90
21648;DHT22;10985;54.182;7.890;2022-10-22T10:32:47;16.00;99.90
21648;DHT22;10985;54.182;7.890;2022-10-22T10:35:26;16.10;99.90
21648;DHT22;10985;54.182;7.890;2022-10-22T10:37:59;16.10;99.90
21648;DHT22;10985;54.182;7.890;2022-10-22T10:40:50;16.10;99.90
21648;DHT22;10985;54.182;7.890;2022-10-22T10:43:36;16.30;99.90
21648;DHT22;10985;54.182;7.890;2022-10-22T10:46:16;16.40;99.90
21648;DHT22;10985;54.182;7.890;2022-10-22T10:49:02;16.60;99.90
21648;DHT22;10985;54.182;7.890;2022-10-22T10:54:53;17.10;99.90
21648;DHT22;10985;54.182;7.890;2022-10-22T11:00:18;17.30;99.90
21648;DHT22;10985;54.182;7.890;2022-10-22T11:05:40;17.40;99.90
21648;DHT22;10985;54.182;7.890;2022-10-22T11:08:28;17.40;99.90
21648;DHT22;10985;54.182;7.890;2022-10-22T11:13:42;17.60;99.90
21648;DHT22;10985;54.182;7.890;2022-10-22T11:16:20;17.80;99.90
21648;DHT22;10985;54.182;7.890;2022-10-22T11:21:45;18.40;99.90
21648;DHT22;10985;54.182;7.890;2022-10-22T11:24:27;18.50;99.90
21648;DHT22;10985;54.182;7.890;2022-10-22T11:27:00;18.60;99.90
21648;DHT22;10985;54.182;7.890;2022-10-22T11:29:32;18.70;99.90
21648;DHT22;10985;54.182;7.890;2022-10-22T11:32:01;18.80;99.90
21648;DHT22;10985;54.182;7.890;2022-10-22T11:34:38;19.00;99.90
21648;DHT22;10985;54.182;7.890;2022-10-22T11:37:05;19.10;99.90
21648;DHT22;10985;54.182;7.890;2022-10-22T11:39:54;19.20;99.90
21648;DHT22;10985;54.182;7.890;2022-10-22T11:42:30;19.10;99.90
21648;DHT22;10985;54.182;7.890;2022-10-22T11:45:00;19.00;99.90
21648;DHT22;10985;54.182;7.890;2022-10-22T11:50:26;18.70;99.90
21648;DHT22;10985;54.182;7.890;2022-10-22T11:53:04;18.50;99.90
21648;DHT22;10985;54.182;7.890;2022-10-22T11:55:33;18.40;99.90
21648;DHT22;10985;54.182;7.890;2022-10-22T11:58:31;18.20;99.90
21648;DHT22;10985;54.182;7.890;2022-10-22T12:08:43;17.50;99.90
21648;DHT22;10985;54.182;7.890;2022-10-22T12:16:17;17.20;99.90
21648;DHT22;10985;54.182;7.890;2022-10-22T12:18:43;17.20;99.90
21648;DHT22;10985;54.182;7.890;2022-10-22T12:21:12;17.00;99.90
21648;DHT22;10985;54.182;7.890;2022-10-22T12:23:38;16.90;99.90
21648;DHT22;10985;54.182;7.890;2022-10-22T12:26:04;16.90;99.90
21648;DHT22;10985;54.182;7.890;2022-10-22T12:28:38;16.80;99.90
21648;DHT22;10985;54.182;7.890;2022-10-22T12:31:04;16.70;99.90
21648;DHT22;10985;54.182;7.890;2022-10-22T12:33:30;16.60;99.90
21648;DHT22;10985;54.182;7.890;2022-10-22T12:35:57;16.60;99.90
21648;DHT22;10985;54.182;7.890;2022-10-22T12:38:28;16.50;99.90
21648;DHT22;10985;54.182;7.890;2022-10-22T12:40:55;16.40;99.90
21648;DHT22;10985;54.182;7.890;2022-10-22T12:43:26;16.40;99.90
21648;DHT22;10985;54.182;7.890;2022-10-22T12:45:51;16.40;99.90
21648;DHT22;10985;54.182;7.890;2022-10-22T12:48:34;16.30;99.90
21648;DHT22;10985;54.182;7.890;2022-10-22T12:51:03;16.30;99.90
21648;DHT22;10985;54.182;7.890;2022-10-22T12:53:34;16.30;99.90
21648;DHT22;10985;54.182;7.890;2022-10-22T12:56:09;16.30;99.90
21648;DHT22;10985;54.182;7.890;2022-10-22T12:58:46;16.30;99.90
21648;DHT22;10985;54.182;7.890;2022-10-22T13:01:15;16.20;99.90
21648;DHT22;10985;54.182;7.890;2022-10-22T13:03:44;16.20;99.90
21648;DHT22;10985;54.182;7.890;2022-10-22T13:11:20;16.10;99.90
21648;DHT22;10985;54.182;7.890;2022-10-22T13:13:45;16.00;99.90
21648;DHT22;10985;54.182;7.890;2022-10-22T13:16:24;16.00;99.90
21648;DHT22;10985;54.182;7.890;2022-10-22T13:18:52;16.00;99.90
21648;DHT22;10985;54.182;7.890;2022-10-22T13:21:32;16.00;99.90
21648;DHT22;10985;54.182;7.890;2022-10-22T13:24:03;16.00;99.90
21648;DHT22;10985;54.182;7.890;2022-10-22T13:26:42;16.00;99.90
21648;DHT22;10985;54.182;7.890;2022-10-22T13:29:16;15.90;99.90
21648;DHT22;10985;54.182;7.890;2022-10-22T13:31:48;15.90;99.90
21648;DHT22;10985;54.182;7.890;2022-10-22T13:34:17;15.90;99.90
21648;DHT22;10985;54.182;7.890;2022-10-22T13:36:44;16.00;99.90
21648;DHT22;10985;54.182;7.890;2022-10-22T13:39:17;15.90;99.90
21648;DHT22;10985;54.182;7.890;2022-10-22T13:41:43;15.90;99.90
21648;DHT22;10985;54.182;7.890;2022-10-22T13:44:09;16.00;99.90
21648;DHT22;10985;54.182;7.890;2022-10-22T13:46:35;15.90;99.90
21648;DHT22;10985;54.182;7.890;2022-10-22T13:49:09;15.90;99.90
21648;DHT22;10985;54.182;7.890;2022-10-22T13:51:37;15.90;99.90
21648;DHT22;10985;54.182;7.890;2022-10-22T13:54:09;15.90;99.90
21648;DHT22;10985;54.182;7.890;2022-10-22T13:56:37;15.90;99.90
21648;DHT22;10985;54.182;7.890;2022-10-22T13:59:02;15.90;99.90
21648;DHT22;10985;54.182;7.890;2022-10-22T14:01:28;15.90;99.90
21648;DHT22;10985;54.182;7.890;2022-10-22T14:03:56;15.90;99.90
21648;DHT22;10985;54.182;7.890;2022-10-22T14:06:23;15.80;99.90
21648;DHT22;10985;54.182;7.890;2022-10-22T14:08:55;15.70;99.90
21648;DHT22;10985;54.182;7.890;2022-10-22T14:11:21;15.70;99.90
21648;DHT22;10985;54.182;7.890;2022-10-22T14:13:47;15.70;99.90
21648;DHT22;10985;54.182;7.890;2022-10-22T14:16:17;15.70;99.90
21648;DHT22;10985;54.182;7.890;2022-10-22T14:18:43;15.70;99.90
21648;DHT22;10985;54.182;7.890;2022-10-22T14:21:11;15.70;99.90
21648;DHT22;10985;54.182;7.890;2022-10-22T14:23:39;15.70;99.90
21648;DHT22;10985;54.182;7.890;2022-10-22T14:26:05;15.60;99.90
21648;DHT22;10985;54.182;7.890;2022-10-22T14:28:32;15.60;99.90
21648;DHT22;10985;54.182;7.890;2022-10-22T14:30:58;15.50;99.90
21648;DHT22;10985;54.182;7.890;2022-10-22T14:33:28;15.50;99.90
21648;DHT22;10985;54.182;7.890;2022-10-22T14:35:55;15.50;99.90
21648;DHT22;10985;54.182;7.890;2022-10-22T14:38:21;15.40;99.90
21648;DHT22;10985;54.182;7.890;2022-10-22T14:40:47;15.40;99.90
21648;DHT22;10985;54.182;7.890;2022-10-22T14:43:22;15.40;99.90
21648;DHT22;10985;54.182;7.890;2022-10-22T14:45:48;15.30;99.90
21648;DHT22;10985;54.182;7.890;2022-10-22T14:48:13;15.30;99.90
21648;DHT22;10985;54.182;7.890;2022-10-22T14:50:41;15.30;99.90
21648;DHT22;10985;54.182;7.890;2022-10-22T14:53:06;15.30;99.90
21648;DHT22;10985;54.182;7.890;2022-10-22T14:55:32;15.30;99.90
21648;DHT22;10985;54.182;7.890;2022-10-22T14:57:58;15.30;99.90
21648;DHT22;10985;54.182;7.890;2022-10-22T15:00:23;15.30;99.90
21648;DHT22;10985;54.182;7.890;2022-10-22T15:02:49;15.30;99.90
21648;DHT22;10985;54.182;7.890;2022-10-22T15:05:15;15.30;99.90
21648;DHT22;10985;54.182;7.890;2022-10-22T15:07:42;15.30;99.90
21648;DHT22;10985;54.182;7.890;2022-10-22T15:10:08;15.30;99.90
21648;DHT22;10985;54.182;7.890;2022-10-22T15:12:34;15.20;99.90
21648;DHT22;10985;54.182;7.890;2022-10-22T15:15:00;15.20;99.90
21648;DHT22;10985;54.182;7.890;2022-10-22T15:17:25;15.30;99.90
21648;DHT22;10985;54.182;7.890;2022-10-22T15:19:51;15.30;99.90
21648;DHT22;10985;54.182;7.890;2022-10-22T15:22:18;15.30;99.90
21648;DHT22;10985;54.182;7.890;2022-10-22T15:24:43;15.30;99.90
21648;DHT22;10985;54.182;7.890;2022-10-22T15:27:12;15.30;99.90
21648;DHT22;10985;54.182;7.890;2022-10-22T15:29:38;15.30;99.90
21648;DHT22;10985;54.182;7.890;2022-10-22T15:32:04;15.30;99.90
21648;DHT22;10985;54.182;7.890;2022-10-22T15:34:31;15.30;99.90
21648;DHT22;10985;54.182;7.890;2022-10-22T15:36:59;15.30;99.90
21648;DHT22;10985;54.182;7.890;2022-10-22T15:39:26;15.30;99.90
21648;DHT22;10985;54.182;7.890;2022-10-22T15:41:53;15.30;99.90
21648;DHT22;10985;54.182;7.890;2022-10-22T15:44:21;15.20;99.90
21648;DHT22;10985;54.182;7.890;2022-10-22T15:46:47;15.20;99.90
21648;DHT22;10985;54.182;7.890;2022-10-22T15:49:12;15.20;99.90
21648;DHT22;10985;54.182;7.890;2022-10-22T15:51:38;15.20;99.90
21648;DHT22;10985;54.182;7.890;2022-10-22T15:54:04;15.20;99.90
21648;DHT22;10985;54.182;7.890;2022-10-22T15:56:30;15.20;99.90
21648;DHT22;10985;54.182;7.890;2022-10-22T15:59:00;15.20;99.90
21648;DHT22;10985;54.182;7.890;2022-10-22T16:01:31;15.20;99.90
21648;DHT22;10985;54.182;7.890;2022-10-22T16:03:57;15.20;99.90
21648;DHT22;10985;54.182;7.890;2022-10-22T16:06:32;15.20;99.90
21648;DHT22;10985;54.182;7.890;2022-10-22T16:09:00;15.20;99.90
21648;DHT22;10985;54.182;7.890;2022-10-22T16:11:26;15.10;99.90
21648;DHT22;10985;54.182;7.890;2022-10-22T16:13:57;15.10;99.90
21648;DHT22;10985;54.182;7.890;2022-10-22T16:16:25;15.20;99.90
21648;DHT22;10985;54.182;7.890;2022-10-22T16:18:50;15.10;99.90
21648;DHT22;10985;54.182;7.890;2022-10-22T16:21:17;15.10;99.90
21648;DHT22;10985;54.182;7.890;2022-10-22T16:23:43;15.10;99.90
21648;DHT22;10985;54.182;7.890;2022-10-22T16:26:08;15.10;99.90
21648;DHT22;10985;54.182;7.890;2022-10-22T16:28:34;15.10;99.90
21648;DHT22;10985;54.182;7.890;2022-10-22T16:31:01;15.10;99.90
21648;DHT22;10985;54.182;7.890;2022-10-22T16:33:27;15.20;99.90
21648;DHT22;10985;54.182;7.890;2022-10-22T16:35:53;15.10;99.90
21648;DHT22;10985;54.182;7.890;2022-10-22T16:38:18;15.10;99.90
21648;DHT22;10985;54.182;7.890;2022-10-22T16:40:44;15.10;99.90
21648;DHT22;10985;54.182;7.890;2022-10-22T16:43:10;15.10;99.90
21648;DHT22;10985;54.182;7.890;2022-10-22T16:45:35;15.10;99.90
21648;DHT22;10985;54.182;7.890;2022-10-22T16:48:01;15.10;99.90
21648;DHT22;10985;54.182;7.890;2022-10-22T16:50:26;15.10;99.90
21648;DHT22;10985;54.182;7.890;2022-10-22T16:52:52;15.10;99.90
21648;DHT22;10985;54.182;7.890;2022-10-22T16:55:18;15.10;99.90
21648;DHT22;10985;54.182;7.890;2022-10-22T16:57:49;15.10;99.90
